• Join FlightAware (Why Join?)
  • Login
  • US Flag 
Rudolph Flight #1: Arrived! 
12:59AM EST


 

Airport Tracker/Info


-or-


 

Live Flight TrackerFlight Track Log ✈ TAM3129 ✈ 12-Nov-2013 ✈ SBVT / VIX - SBSP / CGH

Flight Track Log - Related Links

Times and Time Zones

All times are in EST time to prevent confusion due to time zone crossing. See the TAM3129 flight status page for this flight to view local times or setup timezone preferences in your user account.

Time Position Orientation Groundspeed Altitude Reporting Facility
EST Latitude Longitude Course Direction KTS MPH feet Rate Location/Type
03:33AM -20.9758 -41.5816 239° Southwest  Level Estimated
03:34AM -21.0177 -41.6581 240° Southwest  Level Estimated
03:35AM -21.0596 -41.7347 240° Southwest  Level Estimated
03:36AM -21.1014 -41.8114 240° Southwest  Level Estimated
03:37AM -21.1432 -41.8881 240° Southwest  Level Estimated
03:38AM -21.1850 -41.9648 240° Southwest  Level Estimated
03:39AM -21.2267 -42.0416 240° Southwest  Level Estimated
03:40AM -21.2685 -42.1185 240° Southwest  Level Estimated
03:41AM -21.3101 -42.1953 240° Southwest  Level Estimated
03:42AM -21.3518 -42.2722 240° Southwest  Level Estimated
03:43AM -21.3934 -42.3492 240° Southwest  Level Estimated
03:44AM -21.4349 -42.4262 240° Southwest  Level Estimated
03:45AM -21.4843 -42.5178 240° Southwest  Level Estimated
03:46AM -21.5336 -42.6094 240° Southwest  Level Estimated
03:47AM -21.5828 -42.7011 240° Southwest  Level Estimated
03:48AM -21.6320 -42.7928 240° Southwest  Level Estimated
03:49AM -21.6812 -42.8847 240° Southwest  Level Estimated
03:50AM -21.7303 -42.9765 240° Southwest  Level Estimated
03:51AM -21.7793 -43.0685 240° Southwest  Level Estimated
03:52AM -21.8283 -43.1605 240° Southwest  Level Estimated
03:53AM -21.8773 -43.2525 240° Southwest  Level Estimated
03:54AM -21.9262 -43.3447 240° Southwest  Level Estimated
03:55AM -21.9750 -43.4369 240° Southwest  Level Estimated
03:56AM -22.0238 -43.5291 240° Southwest  Level Estimated
03:57AM -22.0726 -43.6214 240° Southwest  Level Estimated
03:58AM -22.1213 -43.7138 240° Southwest  Level Estimated
03:59AM -22.1699 -43.8063 240° Southwest  Level Estimated
04:00AM -22.2185 -43.8988 240° Southwest  Level Estimated
04:01AM -22.2670 -43.9914 240° Southwest  Level Estimated
04:02AM -22.3155 -44.0840 240° Southwest  Level Estimated
04:03AM -22.3640 -44.1767 241° Southwest  Level Estimated
04:04AM -22.4123 -44.2695 241° Southwest  Level Estimated
04:05AM -22.4607 -44.3623 241° Southwest  Level Estimated
04:06AM -22.5089 -44.4552 241° Southwest  Level Estimated
04:07AM -22.5572 -44.5482 241° Southwest  Level Estimated
04:08AM -22.6053 -44.6412 241° Southwest  Level Estimated
04:09AM -22.6534 -44.7343 241° Southwest  Level Estimated
04:10AM -22.7015 -44.8275 241° Southwest  Level Estimated
04:11AM -22.7495 -44.9207 241° Southwest  Level Estimated
04:12AM -22.7974 -45.0140 241° Southwest  Level Estimated
04:13AM -22.8454 -45.1073 241° Southwest  Level Estimated
04:14AM -22.8932 -45.2008 241° Southwest  Level Estimated
04:15AM -22.9410 -45.2943 241° Southwest  Level Estimated
04:16AM -22.9887 -45.3878 241° Southwest  Level Estimated
04:17AM -23.0364 -45.4814 241° Southwest  Level Estimated
04:18AM -23.0840 -45.5751 241° Southwest  Level Estimated
04:19AM -23.1316 -45.6689 241° Southwest  Level Estimated
04:20AM -23.1791 -45.7627 241° Southwest  Level Estimated
04:21AM -23.2265 -45.8566 241° Southwest  Level Estimated
04:22AM -23.2740 -45.9505 241° Southwest  Level Estimated
04:23AM -23.3213 -46.0445 241° Southwest  Level Estimated
04:24AM -23.3686 -46.1386 241° Southwest  Level Estimated
04:25AM -23.4158 -46.2328 241° Southwest  Level Estimated
04:26AM -23.4630 -46.3270 241° Southwest  Level Estimated
04:27AM -23.5101 -46.4213 241° Southwest  Level Estimated
04:28AM -23.5572 -46.5156 241° Southwest  Level Estimated
04:29AM -23.6042 -46.6101 241° Southwest  Level Estimated
04:30AM -23.6267 -46.6554 242° Southwest  Level Estimated
04:31AM -23.6267 -46.6554 114° Southeast  Level Estimated
04:32AM -23.6267 -46.6554 114° Southeast  Level Estimated
04:33AM -23.6267 -46.6554 114° Southeast  Level Estimated
04:34AM -23.6267 -46.6554 114° Southeast  Level Estimated
04:35AM -23.6267 -46.6554 114° Southeast  Level Estimated
04:36AM -23.6267 -46.6554 114° Southeast  Level Estimated
04:37AM -23.6267 -46.6554 114° Southeast  Level Estimated
04:38AM -23.6267 -46.6554 114° Southeast  Level Estimated
04:39AM -23.6267 -46.6554 114° Southeast  Level Estimated
04:40AM -23.6267 -46.6554 114° Southeast  Level Estimated
04:41AM -23.6267 -46.6554 114° Southeast  Level Estimated